DRK400 VQPR-VNKT
Flight info
| Callsign | DRK400 |
|---|---|
| Flight time | 0h 48m |
| Altitude | 34000 |
| Route | PRO G348 KIMTI KMTI1G |
| Aircraft | A319/M-SDE3FGHIRWY/LB1 |
Departure
| Time | 2026-04-30 00:22 |
|---|---|
| Airport | Paro International Airport (VQPR) |
Arrival
| Time | 2026-04-30 01:11 |
|---|---|
| Airport | Tribhuvan International Airport (VNKT) |
| Time | Latitude | Longitude | Altitude | Speed | Heading |
|---|---|---|---|---|---|
| 2026-04-30 00:06 | 27.40629 | 89.42102 | 7356 ft | 0 kts | 240° |
| 2026-04-30 00:15 | 27.40630 | 89.42102 | 7356 ft | 0 kts | 240° |
| 2026-04-30 00:16 | 27.40633 | 89.42109 | 7356 ft | 2 kts | 240° |
| 2026-04-30 00:16 | 27.40641 | 89.42128 | 7358 ft | 3 kts | 257° |
| 2026-04-30 00:16 | 27.40643 | 89.42149 | 7357 ft | 3 kts | 288° |
| 2026-04-30 00:16 | 27.40634 | 89.42168 | 7357 ft | 3 kts | 320° |
| 2026-04-30 00:17 | 27.40623 | 89.42177 | 7355 ft | 1 kts | 330° |
| 2026-04-30 00:17 | 27.40619 | 89.42179 | 7355 ft | 2 kts | 330° |
| 2026-04-30 00:19 | 27.40620 | 89.42178 | 7355 ft | 1 kts | 330° |
| 2026-04-30 00:19 | 27.40642 | 89.42168 | 7357 ft | 3 kts | 347° |
| 2026-04-30 00:20 | 27.40677 | 89.42193 | 7357 ft | 6 kts | 50° |
| 2026-04-30 00:20 | 27.40694 | 89.42210 | 7359 ft | 4 kts | 26° |
| 2026-04-30 00:20 | 27.40773 | 89.42183 | 7361 ft | 20 kts | 331° |
| 2026-04-30 00:20 | 27.40937 | 89.42079 | 7367 ft | 34 kts | 331° |
| 2026-04-30 00:21 | 27.41127 | 89.41959 | 7370 ft | 27 kts | 328° |
| 2026-04-30 00:21 | 27.41214 | 89.41905 | 7373 ft | 8 kts | 49° |
| 2026-04-30 00:21 | 27.41192 | 89.41935 | 7371 ft | 5 kts | 180° |
| 2026-04-30 00:21 | 27.41156 | 89.41944 | 7370 ft | 5 kts | 156° |
| 2026-04-30 00:22 | 27.41060 | 89.42003 | 7369 ft | 46 kts | 150° |
| 2026-04-30 00:22 | 27.40560 | 89.42321 | 7352 ft | 116 kts | 150° |
| 2026-04-30 00:22 | 27.39687 | 89.42879 | 7377 ft | 167 kts | 151° |
| 2026-04-30 00:22 | 27.38711 | 89.43548 | 8071 ft | 165 kts | 143° |
| 2026-04-30 00:23 | 27.37841 | 89.44373 | 8821 ft | 162 kts | 139° |
| 2026-04-30 00:23 | 27.36996 | 89.45203 | 9360 ft | 164 kts | 137° |
| 2026-04-30 00:23 | 27.36117 | 89.46097 | 9702 ft | 176 kts | 137° |
| 2026-04-30 00:23 | 27.35205 | 89.47047 | 10220 ft | 179 kts | 138° |
| 2026-04-30 00:24 | 27.34318 | 89.48011 | 10680 ft | 177 kts | 133° |
| 2026-04-30 00:24 | 27.33590 | 89.49155 | 10979 ft | 184 kts | 117° |
| 2026-04-30 00:24 | 27.33069 | 89.50528 | 11466 ft | 197 kts | 107° |
| 2026-04-30 00:24 | 27.32694 | 89.52056 | 12012 ft | 212 kts | 103° |
| 2026-04-30 00:25 | 27.32330 | 89.53713 | 12598 ft | 223 kts | 108° |
| 2026-04-30 00:25 | 27.31535 | 89.55287 | 12943 ft | 247 kts | 134° |
| 2026-04-30 00:25 | 27.30048 | 89.56428 | 13204 ft | 270 kts | 158° |
| 2026-04-30 00:25 | 27.28147 | 89.56781 | 13618 ft | 288 kts | 184° |
| 2026-04-30 00:26 | 27.26172 | 89.56177 | 13898 ft | 312 kts | 208° |
| 2026-04-30 00:26 | 27.24467 | 89.54498 | 14088 ft | 337 kts | 236° |
| 2026-04-30 00:26 | 27.23401 | 89.52095 | 14230 ft | 359 kts | 246° |
| 2026-04-30 00:26 | 27.22388 | 89.49429 | 14335 ft | 382 kts | 247° |
| 2026-04-30 00:27 | 27.21339 | 89.46608 | 14469 ft | 401 kts | 247° |
| 2026-04-30 00:27 | 27.20247 | 89.43678 | 14891 ft | 409 kts | 247° |
| 2026-04-30 00:27 | 27.19134 | 89.40724 | 15470 ft | 412 kts | 246° |
| 2026-04-30 00:27 | 27.18006 | 89.37756 | 16077 ft | 414 kts | 246° |
| 2026-04-30 00:28 | 27.16864 | 89.34772 | 16667 ft | 416 kts | 245° |
| 2026-04-30 00:28 | 27.15710 | 89.31777 | 17192 ft | 419 kts | 245° |
| 2026-04-30 00:28 | 27.14548 | 89.28765 | 17715 ft | 422 kts | 245° |
| 2026-04-30 00:28 | 27.13378 | 89.25734 | 18239 ft | 425 kts | 245° |
| 2026-04-30 00:29 | 27.12198 | 89.22676 | 18684 ft | 427 kts | 245° |
| 2026-04-30 00:29 | 27.11016 | 89.19609 | 19116 ft | 428 kts | 245° |
| 2026-04-30 00:29 | 27.09834 | 89.16529 | 19563 ft | 430 kts | 245° |
| 2026-04-30 00:29 | 27.08648 | 89.13445 | 19977 ft | 432 kts | 245° |
| 2026-04-30 00:30 | 27.07453 | 89.10345 | 20346 ft | 434 kts | 245° |
| 2026-04-30 00:30 | 27.06250 | 89.07231 | 20740 ft | 436 kts | 245° |
| 2026-04-30 00:30 | 27.05041 | 89.04103 | 21149 ft | 438 kts | 245° |
| 2026-04-30 00:30 | 27.03827 | 89.00962 | 21531 ft | 439 kts | 245° |
| 2026-04-30 00:31 | 27.02607 | 88.97805 | 21913 ft | 442 kts | 245° |
| 2026-04-30 00:31 | 27.01388 | 88.94639 | 22272 ft | 443 kts | 246° |
| 2026-04-30 00:31 | 27.00543 | 88.91339 | 22601 ft | 449 kts | 260° |
| 2026-04-30 00:31 | 27.00519 | 88.87824 | 22935 ft | 456 kts | 275° |
| 2026-04-30 00:32 | 27.01128 | 88.84318 | 23234 ft | 459 kts | 279° |
| 2026-04-30 00:32 | 27.01799 | 88.80799 | 23494 ft | 463 kts | 280° |
| 2026-04-30 00:32 | 27.02489 | 88.77257 | 23738 ft | 465 kts | 280° |
| 2026-04-30 00:32 | 27.03183 | 88.73713 | 24003 ft | 467 kts | 280° |
| 2026-04-30 00:33 | 27.03875 | 88.70150 | 24284 ft | 468 kts | 279° |
| 2026-04-30 00:33 | 27.04560 | 88.66585 | 24555 ft | 469 kts | 279° |
| 2026-04-30 00:33 | 27.05241 | 88.63001 | 24822 ft | 470 kts | 279° |
| 2026-04-30 00:33 | 27.05917 | 88.59408 | 25088 ft | 471 kts | 279° |
| 2026-04-30 00:34 | 27.06594 | 88.55809 | 25368 ft | 472 kts | 279° |
| 2026-04-30 00:34 | 27.07270 | 88.52202 | 25619 ft | 473 kts | 279° |
| 2026-04-30 00:34 | 27.07948 | 88.48589 | 25880 ft | 474 kts | 279° |
| 2026-04-30 00:34 | 27.08620 | 88.45014 | 26143 ft | 475 kts | 279° |
| 2026-04-30 00:35 | 27.09302 | 88.41390 | 26416 ft | 476 kts | 279° |
| 2026-04-30 00:35 | 27.09987 | 88.37748 | 26674 ft | 477 kts | 279° |
| 2026-04-30 00:35 | 27.10671 | 88.34102 | 26957 ft | 478 kts | 279° |
| 2026-04-30 00:35 | 27.11354 | 88.30466 | 27319 ft | 476 kts | 279° |
| 2026-04-30 00:36 | 27.12035 | 88.26834 | 27686 ft | 474 kts | 279° |
| 2026-04-30 00:36 | 27.12715 | 88.23209 | 28053 ft | 473 kts | 279° |
| 2026-04-30 00:36 | 27.13390 | 88.19603 | 28434 ft | 472 kts | 279° |
| 2026-04-30 00:36 | 27.14062 | 88.15998 | 28849 ft | 470 kts | 278° |
| 2026-04-30 00:37 | 27.14725 | 88.12413 | 29216 ft | 469 kts | 278° |
| 2026-04-30 00:37 | 27.15388 | 88.08829 | 29625 ft | 467 kts | 278° |
| 2026-04-30 00:37 | 27.16051 | 88.05260 | 30028 ft | 466 kts | 278° |
| 2026-04-30 00:37 | 27.16714 | 88.01700 | 30407 ft | 464 kts | 278° |
| 2026-04-30 00:38 | 27.17370 | 87.98164 | 30786 ft | 462 kts | 277° |
| 2026-04-30 00:38 | 27.18019 | 87.94642 | 31143 ft | 461 kts | 277° |
| 2026-04-30 00:38 | 27.18665 | 87.91124 | 31460 ft | 460 kts | 277° |
| 2026-04-30 00:38 | 27.19311 | 87.87602 | 31834 ft | 459 kts | 277° |
| 2026-04-30 00:39 | 27.19955 | 87.84092 | 32213 ft | 458 kts | 277° |
| 2026-04-30 00:39 | 27.20588 | 87.80637 | 32577 ft | 457 kts | 277° |
| 2026-04-30 00:39 | 27.21232 | 87.77143 | 32915 ft | 457 kts | 277° |
| 2026-04-30 00:39 | 27.21876 | 87.73648 | 33329 ft | 456 kts | 276° |
| 2026-04-30 00:40 | 27.22519 | 87.70152 | 33779 ft | 456 kts | 276° |
| 2026-04-30 00:40 | 27.23157 | 87.66660 | 33931 ft | 457 kts | 276° |
| 2026-04-30 00:40 | 27.23789 | 87.63164 | 33966 ft | 456 kts | 276° |
| 2026-04-30 00:41 | 27.25048 | 87.56180 | 33955 ft | 455 kts | 276° |
| 2026-04-30 00:41 | 27.26310 | 87.49216 | 33957 ft | 455 kts | 276° |
| 2026-04-30 00:42 | 27.27572 | 87.42230 | 33957 ft | 456 kts | 276° |
| 2026-04-30 00:42 | 27.28823 | 87.35279 | 33959 ft | 455 kts | 276° |
| 2026-04-30 00:43 | 27.30069 | 87.28318 | 33960 ft | 453 kts | 276° |
| 2026-04-30 00:43 | 27.31310 | 87.21373 | 33964 ft | 452 kts | 276° |
| 2026-04-30 00:44 | 27.32589 | 87.14450 | 33991 ft | 453 kts | 277° |
| 2026-04-30 00:44 | 27.33978 | 87.07527 | 34002 ft | 452 kts | 277° |
| 2026-04-30 00:45 | 27.35366 | 87.00630 | 34000 ft | 452 kts | 277° |
| 2026-04-30 00:45 | 27.36732 | 86.93726 | 34020 ft | 453 kts | 277° |
| 2026-04-30 00:46 | 27.37861 | 86.87967 | 34015 ft | 454 kts | 277° |
| 2026-04-30 00:46 | 27.39430 | 86.79907 | 34015 ft | 454 kts | 277° |
| 2026-04-30 00:47 | 27.40782 | 86.72954 | 34021 ft | 454 kts | 277° |
| 2026-04-30 00:47 | 27.41901 | 86.67183 | 34018 ft | 453 kts | 277° |
| 2026-04-30 00:48 | 27.43241 | 86.60246 | 34006 ft | 454 kts | 276° |
| 2026-04-30 00:48 | 27.44586 | 86.53318 | 33392 ft | 453 kts | 277° |
| 2026-04-30 00:48 | 27.45260 | 86.49824 | 32233 ft | 460 kts | 278° |
| 2026-04-30 00:49 | 27.45966 | 86.46292 | 31128 ft | 465 kts | 279° |
| 2026-04-30 00:49 | 27.46668 | 86.42725 | 30082 ft | 468 kts | 279° |
| 2026-04-30 00:49 | 27.47356 | 86.39129 | 28873 ft | 470 kts | 279° |
| 2026-04-30 00:49 | 27.48034 | 86.35529 | 28046 ft | 467 kts | 279° |
| 2026-04-30 00:50 | 27.48704 | 86.31952 | 27765 ft | 466 kts | 279° |
| 2026-04-30 00:50 | 27.49374 | 86.28380 | 27527 ft | 467 kts | 279° |
| 2026-04-30 00:50 | 27.50003 | 86.24802 | 27278 ft | 467 kts | 278° |
| 2026-04-30 00:50 | 27.50526 | 86.21238 | 27073 ft | 466 kts | 276° |
| 2026-04-30 00:51 | 27.50975 | 86.17611 | 26793 ft | 468 kts | 275° |
| 2026-04-30 00:51 | 27.51371 | 86.13971 | 26097 ft | 468 kts | 275° |
| 2026-04-30 00:51 | 27.51744 | 86.10323 | 25419 ft | 469 kts | 275° |
| 2026-04-30 00:51 | 27.52121 | 86.06662 | 24752 ft | 471 kts | 275° |
| 2026-04-30 00:52 | 27.52506 | 86.02991 | 24100 ft | 470 kts | 274° |
| 2026-04-30 00:52 | 27.52436 | 85.99329 | 23439 ft | 463 kts | 261° |
| 2026-04-30 00:52 | 27.51641 | 85.95849 | 22890 ft | 458 kts | 252° |
| 2026-04-30 00:52 | 27.50698 | 85.92417 | 22423 ft | 458 kts | 252° |
| 2026-04-30 00:53 | 27.49776 | 85.89045 | 21910 ft | 454 kts | 252° |
| 2026-04-30 00:53 | 27.48855 | 85.85662 | 21364 ft | 451 kts | 252° |
| 2026-04-30 00:53 | 27.47927 | 85.82252 | 20827 ft | 447 kts | 253° |
| 2026-04-30 00:53 | 27.47030 | 85.78962 | 20305 ft | 444 kts | 253° |
| 2026-04-30 00:54 | 27.46123 | 85.75648 | 19784 ft | 441 kts | 252° |
| 2026-04-30 00:54 | 27.45220 | 85.72369 | 19268 ft | 437 kts | 252° |
| 2026-04-30 00:54 | 27.44320 | 85.69108 | 18770 ft | 434 kts | 252° |
| 2026-04-30 00:54 | 27.43428 | 85.65874 | 18267 ft | 431 kts | 252° |
| 2026-04-30 00:55 | 27.42544 | 85.62662 | 17693 ft | 428 kts | 252° |
| 2026-04-30 00:55 | 27.41664 | 85.59459 | 17132 ft | 426 kts | 252° |
| 2026-04-30 00:55 | 27.39917 | 85.53117 | 16001 ft | 421 kts | 253° |
| 2026-04-30 00:56 | 27.39051 | 85.49985 | 15472 ft | 417 kts | 253° |
| 2026-04-30 00:56 | 27.38192 | 85.46882 | 14948 ft | 414 kts | 252° |
| 2026-04-30 00:56 | 27.37334 | 85.43797 | 14431 ft | 411 kts | 253° |
| 2026-04-30 00:56 | 27.36490 | 85.40761 | 13916 ft | 402 kts | 253° |
| 2026-04-30 00:57 | 27.35844 | 85.37730 | 13374 ft | 395 kts | 262° |
| 2026-04-30 00:57 | 27.35433 | 85.34704 | 12807 ft | 389 kts | 255° |
| 2026-04-30 00:57 | 27.34675 | 85.31810 | 12263 ft | 381 kts | 255° |
| 2026-04-30 00:57 | 27.34043 | 85.28961 | 11720 ft | 368 kts | 256° |
| 2026-04-30 00:58 | 27.33446 | 85.26220 | 11175 ft | 353 kts | 256° |
| 2026-04-30 00:58 | 27.32877 | 85.23580 | 10674 ft | 342 kts | 256° |
| 2026-04-30 00:58 | 27.32331 | 85.21048 | 10464 ft | 322 kts | 256° |
| 2026-04-30 00:58 | 27.31828 | 85.18682 | 10443 ft | 300 kts | 256° |
| 2026-04-30 00:59 | 27.31611 | 85.16439 | 10456 ft | 281 kts | 274° |
| 2026-04-30 00:59 | 27.32047 | 85.14370 | 10451 ft | 265 kts | 292° |
| 2026-04-30 00:59 | 27.33002 | 85.12698 | 10449 ft | 253 kts | 310° |
| 2026-04-30 00:59 | 27.34444 | 85.11414 | 10440 ft | 286 kts | 330° |
| 2026-04-30 01:00 | 27.36438 | 85.10718 | 10431 ft | 306 kts | 353° |
| 2026-04-30 01:00 | 27.38566 | 85.10958 | 10435 ft | 313 kts | 16° |
| 2026-04-30 01:00 | 27.40455 | 85.12099 | 10460 ft | 314 kts | 39° |
| 2026-04-30 01:00 | 27.42137 | 85.13655 | 10465 ft | 311 kts | 40° |
| 2026-04-30 01:01 | 27.43807 | 85.15206 | 10415 ft | 313 kts | 41° |
| 2026-04-30 01:01 | 27.45492 | 85.16772 | 10042 ft | 314 kts | 41° |
| 2026-04-30 01:01 | 27.47178 | 85.18334 | 9715 ft | 312 kts | 41° |
| 2026-04-30 01:01 | 27.48836 | 85.19864 | 9387 ft | 303 kts | 41° |
| 2026-04-30 01:02 | 27.50451 | 85.21337 | 9090 ft | 296 kts | 39° |
| 2026-04-30 01:02 | 27.52149 | 85.22621 | 8802 ft | 291 kts | 32° |
| 2026-04-30 01:02 | 27.53910 | 85.23647 | 8656 ft | 277 kts | 27° |
| 2026-04-30 01:02 | 27.55515 | 85.24687 | 8588 ft | 257 kts | 36° |
| 2026-04-30 01:03 | 27.56866 | 85.25915 | 8512 ft | 243 kts | 45° |
| 2026-04-30 01:03 | 27.57986 | 85.27279 | 8431 ft | 231 kts | 53° |
| 2026-04-30 01:03 | 27.58898 | 85.28750 | 8386 ft | 237 kts | 61° |
| 2026-04-30 01:03 | 27.59663 | 85.30460 | 8301 ft | 249 kts | 70° |
| 2026-04-30 01:04 | 27.60262 | 85.32297 | 8265 ft | 251 kts | 71° |
| 2026-04-30 01:04 | 27.60861 | 85.34148 | 8173 ft | 251 kts | 72° |
| 2026-04-30 01:04 | 27.61456 | 85.35970 | 8090 ft | 250 kts | 72° |
| 2026-04-30 01:04 | 27.62056 | 85.37804 | 8007 ft | 245 kts | 71° |
| 2026-04-30 01:05 | 27.62799 | 85.39502 | 7925 ft | 238 kts | 58° |
| 2026-04-30 01:05 | 27.63815 | 85.40912 | 7842 ft | 226 kts | 49° |
| 2026-04-30 01:05 | 27.64873 | 85.42175 | 7762 ft | 216 kts | 49° |
| 2026-04-30 01:05 | 27.65876 | 85.43389 | 7722 ft | 204 kts | 48° |
| 2026-04-30 01:06 | 27.66812 | 85.44525 | 7624 ft | 190 kts | 49° |
| 2026-04-30 01:06 | 27.67664 | 85.45561 | 7554 ft | 170 kts | 49° |
| 2026-04-30 01:06 | 27.68508 | 85.46411 | 7507 ft | 157 kts | 36° |
| 2026-04-30 01:06 | 27.69465 | 85.46953 | 7451 ft | 153 kts | 21° |
| 2026-04-30 01:07 | 27.70500 | 85.47208 | 7206 ft | 150 kts | 6° |
| 2026-04-30 01:07 | 27.71529 | 85.47156 | 7017 ft | 148 kts | 351° |
| 2026-04-30 01:07 | 27.72506 | 85.46820 | 6830 ft | 147 kts | 336° |
| 2026-04-30 01:07 | 27.73370 | 85.46235 | 6647 ft | 147 kts | 323° |
| 2026-04-30 01:08 | 27.74092 | 85.45422 | 6444 ft | 147 kts | 308° |
| 2026-04-30 01:08 | 27.74614 | 85.44435 | 6247 ft | 146 kts | 294° |
| 2026-04-30 01:08 | 27.74903 | 85.43340 | 6045 ft | 146 kts | 279° |
| 2026-04-30 01:08 | 27.74951 | 85.42200 | 5877 ft | 148 kts | 265° |
| 2026-04-30 01:09 | 27.74747 | 85.41064 | 5679 ft | 148 kts | 249° |
| 2026-04-30 01:09 | 27.74308 | 85.40029 | 5481 ft | 145 kts | 236° |
| 2026-04-30 01:09 | 27.73799 | 85.39050 | 5286 ft | 145 kts | 237° |
| 2026-04-30 01:09 | 27.73270 | 85.38099 | 5075 ft | 142 kts | 229° |
| 2026-04-30 01:10 | 27.72576 | 85.37319 | 4883 ft | 141 kts | 217° |
| 2026-04-30 01:10 | 27.71715 | 85.36831 | 4639 ft | 138 kts | 194° |
| 2026-04-30 01:10 | 27.70816 | 85.36441 | 4447 ft | 138 kts | 200° |
| 2026-04-30 01:10 | 27.69995 | 85.36070 | 4394 ft | 101 kts | 201° |
| 2026-04-30 01:11 | 27.69627 | 85.35902 | 4396 ft | 13 kts | 202° |
| 2026-04-30 01:11 | 27.69610 | 85.35893 | 4396 ft | 8 kts | 202° |
| 2026-04-30 01:11 | 27.69495 | 85.35834 | 4396 ft | 25 kts | 223° |
| 2026-04-30 01:11 | 27.69568 | 85.35749 | 4398 ft | 22 kts | 27° |
| 2026-04-30 01:12 | 27.69709 | 85.35819 | 4398 ft | 22 kts | 20° |
| 2026-04-30 01:12 | 27.69844 | 85.35880 | 4397 ft | 16 kts | 22° |
| 2026-04-30 01:12 | 27.69912 | 85.35883 | 4398 ft | 8 kts | 301° |
| 2026-04-30 01:12 | 27.69929 | 85.35834 | 4398 ft | 5 kts | 292° |
| 2026-04-30 01:13 | 27.69936 | 85.35815 | 4398 ft | 0 kts | 292° |